sensor_id;sensor_type;location;lat;lon;timestamp;temperature;humidity
4697;DHT22;2362;50.780;0.292;2024-01-25T00:00:31;8.60;94.90
4697;DHT22;2362;50.780;0.292;2024-01-25T00:02:57;8.50;94.90
4697;DHT22;2362;50.780;0.292;2024-01-25T00:05:22;8.50;94.90
4697;DHT22;2362;50.780;0.292;2024-01-25T00:07:48;8.40;94.80
4697;DHT22;2362;50.780;0.292;2024-01-25T00:10:16;8.30;95.00
4697;DHT22;2362;50.780;0.292;2024-01-25T00:12:42;8.20;95.00
4697;DHT22;2362;50.780;0.292;2024-01-25T00:15:09;8.20;95.10
4697;DHT22;2362;50.780;0.292;2024-01-25T00:17:34;8.10;95.10
4697;DHT22;2362;50.780;0.292;2024-01-25T00:20:00;8.10;95.20
4697;DHT22;2362;50.780;0.292;2024-01-25T00:22:26;8.00;95.50
4697;DHT22;2362;50.780;0.292;2024-01-25T00:24:51;8.00;95.70
4697;DHT22;2362;50.780;0.292;2024-01-25T00:27:17;8.00;95.80
4697;DHT22;2362;50.780;0.292;2024-01-25T00:29:42;8.00;95.80
4697;DHT22;2362;50.780;0.292;2024-01-25T00:32:09;8.00;95.90
4697;DHT22;2362;50.780;0.292;2024-01-25T00:34:35;8.00;95.90
4697;DHT22;2362;50.780;0.292;2024-01-25T00:37:01;8.00;96.00
4697;DHT22;2362;50.780;0.292;2024-01-25T00:39:27;8.00;96.00
4697;DHT22;2362;50.780;0.292;2024-01-25T00:41:58;8.00;96.10
4697;DHT22;2362;50.780;0.292;2024-01-25T00:44:28;8.00;96.10
4697;DHT22;2362;50.780;0.292;2024-01-25T00:46:54;8.00;96.30
4697;DHT22;2362;50.780;0.292;2024-01-25T00:49:20;8.00;96.40
4697;DHT22;2362;50.780;0.292;2024-01-25T00:51:48;8.00;96.30
4697;DHT22;2362;50.780;0.292;2024-01-25T00:54:15;8.00;96.30
4697;DHT22;2362;50.780;0.292;2024-01-25T00:56:41;7.90;96.20
4697;DHT22;2362;50.780;0.292;2024-01-25T00:59:07;7.80;96.20
4697;DHT22;2362;50.780;0.292;2024-01-25T01:01:33;7.80;96.40
4697;DHT22;2362;50.780;0.292;2024-01-25T01:03:59;7.70;96.20
4697;DHT22;2362;50.780;0.292;2024-01-25T01:06:25;7.70;96.10
4697;DHT22;2362;50.780;0.292;2024-01-25T01:08:51;7.70;96.20
4697;DHT22;2362;50.780;0.292;2024-01-25T01:11:18;7.60;96.20
4697;DHT22;2362;50.780;0.292;2024-01-25T01:13:44;7.60;96.20
4697;DHT22;2362;50.780;0.292;2024-01-25T01:16:10;7.60;96.70
4697;DHT22;2362;50.780;0.292;2024-01-25T01:18:35;7.70;97.00
4697;DHT22;2362;50.780;0.292;2024-01-25T01:21:02;7.80;97.00
4697;DHT22;2362;50.780;0.292;2024-01-25T01:23:27;7.90;97.10
4697;DHT22;2362;50.780;0.292;2024-01-25T01:25:53;7.90;97.00
4697;DHT22;2362;50.780;0.292;2024-01-25T01:28:18;7.90;96.80
4697;DHT22;2362;50.780;0.292;2024-01-25T01:30:44;7.80;96.70
4697;DHT22;2362;50.780;0.292;2024-01-25T01:33:11;7.80;96.70
4697;DHT22;2362;50.780;0.292;2024-01-25T01:35:37;7.70;96.70
4697;DHT22;2362;50.780;0.292;2024-01-25T01:38:02;7.70;96.70
4697;DHT22;2362;50.780;0.292;2024-01-25T01:40:28;7.70;96.70
4697;DHT22;2362;50.780;0.292;2024-01-25T01:43:00;7.60;96.60
4697;DHT22;2362;50.780;0.292;2024-01-25T01:45:26;7.60;96.70
4697;DHT22;2362;50.780;0.292;2024-01-25T01:47:53;7.60;96.70
4697;DHT22;2362;50.780;0.292;2024-01-25T01:50:18;7.50;96.60
4697;DHT22;2362;50.780;0.292;2024-01-25T01:52:45;7.60;96.80
4697;DHT22;2362;50.780;0.292;2024-01-25T01:55:11;7.50;96.70
4697;DHT22;2362;50.780;0.292;2024-01-25T01:57:37;7.50;96.70
4697;DHT22;2362;50.780;0.292;2024-01-25T02:00:07;7.50;96.70
4697;DHT22;2362;50.780;0.292;2024-01-25T02:02:34;7.60;96.80
4697;DHT22;2362;50.780;0.292;2024-01-25T02:05:00;7.60;96.90
4697;DHT22;2362;50.780;0.292;2024-01-25T02:07:26;7.60;96.80
4697;DHT22;2362;50.780;0.292;2024-01-25T02:09:52;7.60;96.60
4697;DHT22;2362;50.780;0.292;2024-01-25T02:12:17;7.50;96.20
4697;DHT22;2362;50.780;0.292;2024-01-25T02:14:43;7.40;96.30
4697;DHT22;2362;50.780;0.292;2024-01-25T02:17:09;7.40;96.40
4697;DHT22;2362;50.780;0.292;2024-01-25T02:19:35;7.40;96.60
4697;DHT22;2362;50.780;0.292;2024-01-25T02:22:01;7.40;96.80
4697;DHT22;2362;50.780;0.292;2024-01-25T02:24:29;7.40;96.90
4697;DHT22;2362;50.780;0.292;2024-01-25T02:26:55;7.50;97.10
4697;DHT22;2362;50.780;0.292;2024-01-25T02:29:21;7.60;97.40
4697;DHT22;2362;50.780;0.292;2024-01-25T02:31:46;7.70;97.60
4697;DHT22;2362;50.780;0.292;2024-01-25T02:34:12;7.80;97.50
4697;DHT22;2362;50.780;0.292;2024-01-25T02:36:38;7.90;97.50
4697;DHT22;2362;50.780;0.292;2024-01-25T02:39:03;7.90;97.30
4697;DHT22;2362;50.780;0.292;2024-01-25T02:41:30;7.90;97.30
4697;DHT22;2362;50.780;0.292;2024-01-25T02:43:56;7.90;97.60
4697;DHT22;2362;50.780;0.292;2024-01-25T02:46:22;8.00;97.70
4697;DHT22;2362;50.780;0.292;2024-01-25T02:48:48;8.10;97.70
4697;DHT22;2362;50.780;0.292;2024-01-25T02:51:13;8.20;97.60
4697;DHT22;2362;50.780;0.292;2024-01-25T02:53:40;8.30;98.10
4697;DHT22;2362;50.780;0.292;2024-01-25T02:56:06;8.40;97.70
4697;DHT22;2362;50.780;0.292;2024-01-25T02:58:32;8.40;97.80
4697;DHT22;2362;50.780;0.292;2024-01-25T03:00:58;8.50;97.70
4697;DHT22;2362;50.780;0.292;2024-01-25T03:03:23;8.70;97.70
4697;DHT22;2362;50.780;0.292;2024-01-25T03:05:51;8.70;97.60
4697;DHT22;2362;50.780;0.292;2024-01-25T03:08:17;8.80;97.60
4697;DHT22;2362;50.780;0.292;2024-01-25T03:10:42;8.90;97.50
4697;DHT22;2362;50.780;0.292;2024-01-25T03:13:08;8.90;97.40
4697;DHT22;2362;50.780;0.292;2024-01-25T03:15:34;9.00;97.40
4697;DHT22;2362;50.780;0.292;2024-01-25T03:17:59;9.00;97.30
4697;DHT22;2362;50.780;0.292;2024-01-25T03:20:25;9.10;97.20
4697;DHT22;2362;50.780;0.292;2024-01-25T03:22:51;9.10;97.00
4697;DHT22;2362;50.780;0.292;2024-01-25T03:25:16;9.10;97.00
4697;DHT22;2362;50.780;0.292;2024-01-25T03:27:42;9.20;96.80
4697;DHT22;2362;50.780;0.292;2024-01-25T03:30:08;9.10;96.70
4697;DHT22;2362;50.780;0.292;2024-01-25T03:32:34;9.10;96.60
4697;DHT22;2362;50.780;0.292;2024-01-25T03:35:00;9.00;96.60
4697;DHT22;2362;50.780;0.292;2024-01-25T03:37:25;8.90;96.80
4697;DHT22;2362;50.780;0.292;2024-01-25T03:39:51;8.90;97.30
4697;DHT22;2362;50.780;0.292;2024-01-25T03:42:17;9.00;97.30
4697;DHT22;2362;50.780;0.292;2024-01-25T03:44:42;9.00;97.20
4697;DHT22;2362;50.780;0.292;2024-01-25T03:47:10;9.10;97.10
4697;DHT22;2362;50.780;0.292;2024-01-25T03:49:36;9.10;97.00
4697;DHT22;2362;50.780;0.292;2024-01-25T03:52:03;9.10;97.10
4697;DHT22;2362;50.780;0.292;2024-01-25T03:54:28;9.20;97.10
4697;DHT22;2362;50.780;0.292;2024-01-25T03:56:54;9.20;97.10
4697;DHT22;2362;50.780;0.292;2024-01-25T03:59:19;9.10;97.20
4697;DHT22;2362;50.780;0.292;2024-01-25T04:01:45;9.10;97.30
4697;DHT22;2362;50.780;0.292;2024-01-25T04:04:13;9.10;97.50
4697;DHT22;2362;50.780;0.292;2024-01-25T04:06:44;9.10;97.50
4697;DHT22;2362;50.780;0.292;2024-01-25T04:09:11;9.10;97.60
4697;DHT22;2362;50.780;0.292;2024-01-25T04:11:37;9.10;97.70
4697;DHT22;2362;50.780;0.292;2024-01-25T04:14:04;9.10;97.60
4697;DHT22;2362;50.780;0.292;2024-01-25T04:16:29;9.10;97.70
4697;DHT22;2362;50.780;0.292;2024-01-25T04:18:55;9.10;97.90
4697;DHT22;2362;50.780;0.292;2024-01-25T04:21:21;9.10;98.00
4697;DHT22;2362;50.780;0.292;2024-01-25T04:23:46;9.10;98.00
4697;DHT22;2362;50.780;0.292;2024-01-25T04:26:12;9.10;98.10
4697;DHT22;2362;50.780;0.292;2024-01-25T04:28:37;9.20;98.30
4697;DHT22;2362;50.780;0.292;2024-01-25T04:31:03;9.20;98.20
4697;DHT22;2362;50.780;0.292;2024-01-25T04:33:29;9.30;98.20
4697;DHT22;2362;50.780;0.292;2024-01-25T04:35:55;9.40;98.10
4697;DHT22;2362;50.780;0.292;2024-01-25T04:38:21;9.40;98.00
4697;DHT22;2362;50.780;0.292;2024-01-25T04:40:47;9.40;98.00
4697;DHT22;2362;50.780;0.292;2024-01-25T04:43:13;9.50;97.90
4697;DHT22;2362;50.780;0.292;2024-01-25T04:45:39;9.50;97.80
4697;DHT22;2362;50.780;0.292;2024-01-25T04:48:05;9.60;97.70
4697;DHT22;2362;50.780;0.292;2024-01-25T04:50:31;9.60;97.70
4697;DHT22;2362;50.780;0.292;2024-01-25T04:52:57;9.60;97.60
4697;DHT22;2362;50.780;0.292;2024-01-25T04:55:22;9.60;97.60
4697;DHT22;2362;50.780;0.292;2024-01-25T04:57:48;9.70;97.70
4697;DHT22;2362;50.780;0.292;2024-01-25T05:00:17;9.70;97.60
4697;DHT22;2362;50.780;0.292;2024-01-25T05:02:44;9.70;97.60
4697;DHT22;2362;50.780;0.292;2024-01-25T05:05:09;9.70;97.60
4697;DHT22;2362;50.780;0.292;2024-01-25T05:07:35;9.70;97.80
4697;DHT22;2362;50.780;0.292;2024-01-25T05:10:01;9.70;97.80
4697;DHT22;2362;50.780;0.292;2024-01-25T05:12:27;9.70;97.80
4697;DHT22;2362;50.780;0.292;2024-01-25T05:14:53;9.70;97.90
4697;DHT22;2362;50.780;0.292;2024-01-25T05:17:18;9.70;97.90
4697;DHT22;2362;50.780;0.292;2024-01-25T05:19:44;9.80;98.40
4697;DHT22;2362;50.780;0.292;2024-01-25T05:22:10;9.70;97.80
4697;DHT22;2362;50.780;0.292;2024-01-25T05:24:36;9.80;97.90
4697;DHT22;2362;50.780;0.292;2024-01-25T05:27:01;9.80;97.90
4697;DHT22;2362;50.780;0.292;2024-01-25T05:29:27;9.80;97.80
4697;DHT22;2362;50.780;0.292;2024-01-25T05:31:53;9.80;97.90
4697;DHT22;2362;50.780;0.292;2024-01-25T05:34:18;9.80;97.80
4697;DHT22;2362;50.780;0.292;2024-01-25T05:36:44;9.80;97.90
4697;DHT22;2362;50.780;0.292;2024-01-25T05:39:10;9.80;98.00
4697;DHT22;2362;50.780;0.292;2024-01-25T05:41:35;9.80;97.90
4697;DHT22;2362;50.780;0.292;2024-01-25T05:44:01;9.80;97.90
4697;DHT22;2362;50.780;0.292;2024-01-25T05:46:27;9.70;98.30
4697;DHT22;2362;50.780;0.292;2024-01-25T05:48:52;9.70;98.10
4697;DHT22;2362;50.780;0.292;2024-01-25T05:51:18;9.70;98.10
4697;DHT22;2362;50.780;0.292;2024-01-25T05:53:44;9.70;98.10
4697;DHT22;2362;50.780;0.292;2024-01-25T05:56:09;9.70;98.10
4697;DHT22;2362;50.780;0.292;2024-01-25T05:58:35;9.70;98.20
4697;DHT22;2362;50.780;0.292;2024-01-25T06:01:01;9.70;98.30
4697;DHT22;2362;50.780;0.292;2024-01-25T06:03:27;9.70;98.20
4697;DHT22;2362;50.780;0.292;2024-01-25T06:05:53;9.70;98.20
4697;DHT22;2362;50.780;0.292;2024-01-25T06:08:19;9.70;98.10
4697;DHT22;2362;50.780;0.292;2024-01-25T06:10:45;9.70;98.10
4697;DHT22;2362;50.780;0.292;2024-01-25T06:13:10;9.60;98.20
4697;DHT22;2362;50.780;0.292;2024-01-25T06:15:36;9.70;98.20
4697;DHT22;2362;50.780;0.292;2024-01-25T06:18:01;9.70;98.20
4697;DHT22;2362;50.780;0.292;2024-01-25T06:20:28;9.70;98.20
4697;DHT22;2362;50.780;0.292;2024-01-25T06:22:54;9.60;98.20
4697;DHT22;2362;50.780;0.292;2024-01-25T06:25:19;9.60;98.50
4697;DHT22;2362;50.780;0.292;2024-01-25T06:27:45;9.60;98.40
4697;DHT22;2362;50.780;0.292;2024-01-25T06:30:11;9.60;98.50
4697;DHT22;2362;50.780;0.292;2024-01-25T06:32:36;9.60;98.40
4697;DHT22;2362;50.780;0.292;2024-01-25T06:35:03;9.60;98.40
4697;DHT22;2362;50.780;0.292;2024-01-25T06:37:29;9.60;98.40
4697;DHT22;2362;50.780;0.292;2024-01-25T06:39:55;9.60;98.50
4697;DHT22;2362;50.780;0.292;2024-01-25T06:42:21;9.60;98.50
4697;DHT22;2362;50.780;0.292;2024-01-25T06:44:47;9.60;98.50
4697;DHT22;2362;50.780;0.292;2024-01-25T06:47:12;9.60;98.90
4697;DHT22;2362;50.780;0.292;2024-01-25T06:49:38;9.70;98.50
4697;DHT22;2362;50.780;0.292;2024-01-25T06:52:04;9.70;98.40
4697;DHT22;2362;50.780;0.292;2024-01-25T06:54:30;9.60;98.40
4697;DHT22;2362;50.780;0.292;2024-01-25T06:56:57;9.60;98.50
4697;DHT22;2362;50.780;0.292;2024-01-25T06:59:22;9.60;98.60
4697;DHT22;2362;50.780;0.292;2024-01-25T07:01:49;9.60;98.50
4697;DHT22;2362;50.780;0.292;2024-01-25T07:04:14;9.60;98.50
4697;DHT22;2362;50.780;0.292;2024-01-25T07:06:40;9.60;98.50
4697;DHT22;2362;50.780;0.292;2024-01-25T07:09:06;9.70;98.50
4697;DHT22;2362;50.780;0.292;2024-01-25T07:11:32;9.70;98.50
4697;DHT22;2362;50.780;0.292;2024-01-25T07:13:58;9.60;98.40
4697;DHT22;2362;50.780;0.292;2024-01-25T07:16:24;9.60;98.40
4697;DHT22;2362;50.780;0.292;2024-01-25T07:18:49;9.60;98.50
4697;DHT22;2362;50.780;0.292;2024-01-25T07:21:15;9.60;98.60
4697;DHT22;2362;50.780;0.292;2024-01-25T07:23:41;9.50;98.60
4697;DHT22;2362;50.780;0.292;2024-01-25T07:26:07;9.50;98.70
4697;DHT22;2362;50.780;0.292;2024-01-25T07:28:32;9.60;98.70
4697;DHT22;2362;50.780;0.292;2024-01-25T07:30:58;9.60;98.70
4697;DHT22;2362;50.780;0.292;2024-01-25T07:33:23;9.60;98.60
4697;DHT22;2362;50.780;0.292;2024-01-25T07:35:49;9.50;98.70
4697;DHT22;2362;50.780;0.292;2024-01-25T07:38:15;9.60;98.80
4697;DHT22;2362;50.780;0.292;2024-01-25T07:40:41;9.60;98.70
4697;DHT22;2362;50.780;0.292;2024-01-25T07:43:07;9.60;98.80
4697;DHT22;2362;50.780;0.292;2024-01-25T07:45:32;9.60;98.90
4697;DHT22;2362;50.780;0.292;2024-01-25T07:47:58;9.70;98.90
4697;DHT22;2362;50.780;0.292;2024-01-25T07:50:24;9.70;98.90
4697;DHT22;2362;50.780;0.292;2024-01-25T07:52:50;9.70;98.80
4697;DHT22;2362;50.780;0.292;2024-01-25T07:55:16;9.70;98.90
4697;DHT22;2362;50.780;0.292;2024-01-25T07:57:42;9.70;99.00
4697;DHT22;2362;50.780;0.292;2024-01-25T08:00:08;9.70;99.10
4697;DHT22;2362;50.780;0.292;2024-01-25T08:02:35;9.80;99.10
4697;DHT22;2362;50.780;0.292;2024-01-25T08:05:01;9.80;99.10
4697;DHT22;2362;50.780;0.292;2024-01-25T08:07:28;9.90;99.10
4697;DHT22;2362;50.780;0.292;2024-01-25T08:09:54;9.90;99.20
4697;DHT22;2362;50.780;0.292;2024-01-25T08:12:26;9.90;99.40
4697;DHT22;2362;50.780;0.292;2024-01-25T08:14:52;9.90;99.50
4697;DHT22;2362;50.780;0.292;2024-01-25T08:17:18;10.00;99.60
4697;DHT22;2362;50.780;0.292;2024-01-25T08:19:45;10.00;99.70
4697;DHT22;2362;50.780;0.292;2024-01-25T08:22:11;10.10;99.90
4697;DHT22;2362;50.780;0.292;2024-01-25T08:24:38;10.20;99.90
4697;DHT22;2362;50.780;0.292;2024-01-25T08:27:04;10.20;99.90
4697;DHT22;2362;50.780;0.292;2024-01-25T08:29:30;10.30;99.90
4697;DHT22;2362;50.780;0.292;2024-01-25T08:31:55;10.30;99.90
4697;DHT22;2362;50.780;0.292;2024-01-25T08:34:21;10.30;99.90
4697;DHT22;2362;50.780;0.292;2024-01-25T08:36:47;10.30;99.90
4697;DHT22;2362;50.780;0.292;2024-01-25T08:39:12;10.40;99.90
4697;DHT22;2362;50.780;0.292;2024-01-25T08:41:39;10.40;99.80
4697;DHT22;2362;50.780;0.292;2024-01-25T08:44:05;10.50;99.90
4697;DHT22;2362;50.780;0.292;2024-01-25T08:46:30;10.60;99.90
4697;DHT22;2362;50.780;0.292;2024-01-25T08:48:56;10.60;99.90
4697;DHT22;2362;50.780;0.292;2024-01-25T08:51:21;10.70;99.90
4697;DHT22;2362;50.780;0.292;2024-01-25T08:53:47;10.70;99.70
4697;DHT22;2362;50.780;0.292;2024-01-25T08:56:16;10.70;99.70
4697;DHT22;2362;50.780;0.292;2024-01-25T08:58:41;10.70;99.70
4697;DHT22;2362;50.780;0.292;2024-01-25T09:01:07;10.80;99.60
4697;DHT22;2362;50.780;0.292;2024-01-25T09:03:33;10.80;99.40
4697;DHT22;2362;50.780;0.292;2024-01-25T09:05:59;10.70;99.40
4697;DHT22;2362;50.780;0.292;2024-01-25T09:08:30;10.80;99.40
4697;DHT22;2362;50.780;0.292;2024-01-25T09:10:56;10.80;99.30
4697;DHT22;2362;50.780;0.292;2024-01-25T09:13:22;10.80;99.30
4697;DHT22;2362;50.780;0.292;2024-01-25T09:15:47;10.80;99.20
4697;DHT22;2362;50.780;0.292;2024-01-25T09:18:13;10.80;99.20
4697;DHT22;2362;50.780;0.292;2024-01-25T09:20:39;10.90;99.10
4697;DHT22;2362;50.780;0.292;2024-01-25T09:23:06;10.90;99.10
4697;DHT22;2362;50.780;0.292;2024-01-25T09:25:31;10.90;99.00
4697;DHT22;2362;50.780;0.292;2024-01-25T09:27:57;11.00;98.90
4697;DHT22;2362;50.780;0.292;2024-01-25T09:30:23;10.90;98.80
4697;DHT22;2362;50.780;0.292;2024-01-25T09:32:49;11.00;98.90
4697;DHT22;2362;50.780;0.292;2024-01-25T09:35:14;11.00;98.90
4697;DHT22;2362;50.780;0.292;2024-01-25T09:37:40;11.10;98.80
4697;DHT22;2362;50.780;0.292;2024-01-25T09:40:06;11.10;98.60
4697;DHT22;2362;50.780;0.292;2024-01-25T09:42:32;11.10;98.60
4697;DHT22;2362;50.780;0.292;2024-01-25T09:44:57;11.10;98.60
4697;DHT22;2362;50.780;0.292;2024-01-25T09:47:23;11.10;98.60
4697;DHT22;2362;50.780;0.292;2024-01-25T09:49:49;11.10;98.60
4697;DHT22;2362;50.780;0.292;2024-01-25T09:52:16;11.10;98.40
4697;DHT22;2362;50.780;0.292;2024-01-25T09:54:42;11.10;98.40
4697;DHT22;2362;50.780;0.292;2024-01-25T09:57:14;11.10;98.40
4697;DHT22;2362;50.780;0.292;2024-01-25T09:59:43;11.10;98.40
4697;DHT22;2362;50.780;0.292;2024-01-25T10:02:09;11.10;98.40
4697;DHT22;2362;50.780;0.292;2024-01-25T10:04:35;11.10;98.30
4697;DHT22;2362;50.780;0.292;2024-01-25T10:07:01;11.20;98.30
4697;DHT22;2362;50.780;0.292;2024-01-25T10:09:27;11.20;98.10
4697;DHT22;2362;50.780;0.292;2024-01-25T10:11:52;11.20;98.00
4697;DHT22;2362;50.780;0.292;2024-01-25T10:14:18;11.20;98.00
4697;DHT22;2362;50.780;0.292;2024-01-25T10:16:45;11.20;98.00
4697;DHT22;2362;50.780;0.292;2024-01-25T10:19:12;11.20;98.00
4697;DHT22;2362;50.780;0.292;2024-01-25T10:21:37;11.20;97.90
4697;DHT22;2362;50.780;0.292;2024-01-25T10:24:05;11.20;97.90
4697;DHT22;2362;50.780;0.292;2024-01-25T10:26:31;11.20;97.70
4697;DHT22;2362;50.780;0.292;2024-01-25T10:28:57;11.30;97.60
4697;DHT22;2362;50.780;0.292;2024-01-25T10:31:24;11.30;97.30
4697;DHT22;2362;50.780;0.292;2024-01-25T10:33:52;11.20;97.30
4697;DHT22;2362;50.780;0.292;2024-01-25T10:36:21;11.30;97.60
4697;DHT22;2362;50.780;0.292;2024-01-25T10:38:48;11.30;97.50
4697;DHT22;2362;50.780;0.292;2024-01-25T10:41:15;11.30;97.40
4697;DHT22;2362;50.780;0.292;2024-01-25T10:43:40;11.30;97.40
4697;DHT22;2362;50.780;0.292;2024-01-25T10:46:07;11.40;97.40
4697;DHT22;2362;50.780;0.292;2024-01-25T10:48:34;11.40;97.10
4697;DHT22;2362;50.780;0.292;2024-01-25T10:51:01;11.40;97.00
4697;DHT22;2362;50.780;0.292;2024-01-25T10:53:32;11.30;97.00
4697;DHT22;2362;50.780;0.292;2024-01-25T10:55:59;11.30;97.10
4697;DHT22;2362;50.780;0.292;2024-01-25T10:58:33;11.30;97.20
4697;DHT22;2362;50.780;0.292;2024-01-25T11:01:01;11.30;97.00
4697;DHT22;2362;50.780;0.292;2024-01-25T11:03:28;11.30;97.10
4697;DHT22;2362;50.780;0.292;2024-01-25T11:05:55;11.30;97.20
4697;DHT22;2362;50.780;0.292;2024-01-25T11:08:30;11.40;97.20
4697;DHT22;2362;50.780;0.292;2024-01-25T11:10:56;11.40;97.10
4697;DHT22;2362;50.780;0.292;2024-01-25T11:13:26;11.40;97.00
4697;DHT22;2362;50.780;0.292;2024-01-25T11:15:52;11.30;96.90
4697;DHT22;2362;50.780;0.292;2024-01-25T11:18:18;11.40;97.10
4697;DHT22;2362;50.780;0.292;2024-01-25T11:20:47;11.40;97.20
4697;DHT22;2362;50.780;0.292;2024-01-25T11:23:15;11.50;97.20
4697;DHT22;2362;50.780;0.292;2024-01-25T11:25:45;11.60;97.10
4697;DHT22;2362;50.780;0.292;2024-01-25T11:28:14;11.60;97.20
4697;DHT22;2362;50.780;0.292;2024-01-25T11:30:43;11.60;97.00
4697;DHT22;2362;50.780;0.292;2024-01-25T11:33:09;11.60;97.00
4697;DHT22;2362;50.780;0.292;2024-01-25T11:35:35;11.60;97.10
4697;DHT22;2362;50.780;0.292;2024-01-25T11:38:01;11.60;97.00
4697;DHT22;2362;50.780;0.292;2024-01-25T11:40:27;11.60;96.90
4697;DHT22;2362;50.780;0.292;2024-01-25T11:42:57;11.70;96.80
4697;DHT22;2362;50.780;0.292;2024-01-25T11:45:22;11.60;96.60
4697;DHT22;2362;50.780;0.292;2024-01-25T11:47:49;11.60;96.70
4697;DHT22;2362;50.780;0.292;2024-01-25T11:50:15;11.60;96.60
4697;DHT22;2362;50.780;0.292;2024-01-25T11:52:41;11.50;96.60
4697;DHT22;2362;50.780;0.292;2024-01-25T11:55:08;11.60;96.70
4697;DHT22;2362;50.780;0.292;2024-01-25T11:57:35;11.60;96.50
4697;DHT22;2362;50.780;0.292;2024-01-25T12:00:02;11.70;96.70
4697;DHT22;2362;50.780;0.292;2024-01-25T12:02:30;11.70;96.50
4697;DHT22;2362;50.780;0.292;2024-01-25T12:04:57;11.70;96.80
4697;DHT22;2362;50.780;0.292;2024-01-25T12:07:23;11.60;96.50
4697;DHT22;2362;50.780;0.292;2024-01-25T12:10:06;11.50;96.70
4697;DHT22;2362;50.780;0.292;2024-01-25T12:12:32;11.50;96.80
4697;DHT22;2362;50.780;0.292;2024-01-25T12:14:58;11.40;96.90
4697;DHT22;2362;50.780;0.292;2024-01-25T12:17:26;11.40;97.10
4697;DHT22;2362;50.780;0.292;2024-01-25T12:19:57;11.40;97.10
4697;DHT22;2362;50.780;0.292;2024-01-25T12:22:30;11.40;97.10
4697;DHT22;2362;50.780;0.292;2024-01-25T12:24:59;11.40;97.00
4697;DHT22;2362;50.780;0.292;2024-01-25T12:27:25;11.50;97.00
4697;DHT22;2362;50.780;0.292;2024-01-25T12:29:52;11.60;96.90
4697;DHT22;2362;50.780;0.292;2024-01-25T12:32:21;11.70;96.90
4697;DHT22;2362;50.780;0.292;2024-01-25T12:34:54;11.70;96.70
4697;DHT22;2362;50.780;0.292;2024-01-25T12:37:20;11.80;96.60
4697;DHT22;2362;50.780;0.292;2024-01-25T12:39:46;11.70;96.60
4697;DHT22;2362;50.780;0.292;2024-01-25T12:42:12;11.80;96.50
4697;DHT22;2362;50.780;0.292;2024-01-25T12:44:38;11.80;96.40
4697;DHT22;2362;50.780;0.292;2024-01-25T12:47:04;11.80;96.50
4697;DHT22;2362;50.780;0.292;2024-01-25T12:49:32;11.90;96.40
4697;DHT22;2362;50.780;0.292;2024-01-25T12:51:57;11.80;96.40
4697;DHT22;2362;50.780;0.292;2024-01-25T12:54:23;12.00;96.40
4697;DHT22;2362;50.780;0.292;2024-01-25T12:56:49;12.00;96.20
4697;DHT22;2362;50.780;0.292;2024-01-25T12:59:15;12.10;96.20
4697;DHT22;2362;50.780;0.292;2024-01-25T13:01:40;12.10;96.10
4697;DHT22;2362;50.780;0.292;2024-01-25T13:04:06;12.00;96.20
4697;DHT22;2362;50.780;0.292;2024-01-25T13:06:32;12.00;96.20
4697;DHT22;2362;50.780;0.292;2024-01-25T13:08:57;12.00;96.10
4697;DHT22;2362;50.780;0.292;2024-01-25T13:11:23;11.90;96.30
4697;DHT22;2362;50.780;0.292;2024-01-25T13:13:49;11.80;96.30
4697;DHT22;2362;50.780;0.292;2024-01-25T13:16:16;11.80;96.90
4697;DHT22;2362;50.780;0.292;2024-01-25T13:18:42;11.80;96.70
4697;DHT22;2362;50.780;0.292;2024-01-25T13:21:08;11.80;96.70
4697;DHT22;2362;50.780;0.292;2024-01-25T13:23:33;11.80;96.70
4697;DHT22;2362;50.780;0.292;2024-01-25T13:25:59;11.80;96.80
4697;DHT22;2362;50.780;0.292;2024-01-25T13:28:24;11.90;96.70
4697;DHT22;2362;50.780;0.292;2024-01-25T13:30:50;11.80;96.60
4697;DHT22;2362;50.780;0.292;2024-01-25T13:33:17;11.80;96.50
4697;DHT22;2362;50.780;0.292;2024-01-25T13:35:43;11.80;96.60
4697;DHT22;2362;50.780;0.292;2024-01-25T13:38:09;11.80;96.50
4697;DHT22;2362;50.780;0.292;2024-01-25T13:40:40;11.80;96.60
4697;DHT22;2362;50.780;0.292;2024-01-25T13:43:05;11.80;96.50
4697;DHT22;2362;50.780;0.292;2024-01-25T13:45:31;11.80;96.50
4697;DHT22;2362;50.780;0.292;2024-01-25T13:47:56;11.80;96.40
4697;DHT22;2362;50.780;0.292;2024-01-25T13:50:22;11.80;96.50
4697;DHT22;2362;50.780;0.292;2024-01-25T13:52:48;11.80;96.50
4697;DHT22;2362;50.780;0.292;2024-01-25T13:55:13;11.90;96.50
4697;DHT22;2362;50.780;0.292;2024-01-25T13:57:40;11.90;96.60
4697;DHT22;2362;50.780;0.292;2024-01-25T14:00:06;11.90;96.10
4697;DHT22;2362;50.780;0.292;2024-01-25T14:02:33;11.80;96.20
4697;DHT22;2362;50.780;0.292;2024-01-25T14:05:00;11.80;96.40
4697;DHT22;2362;50.780;0.292;2024-01-25T14:07:25;11.90;96.40
4697;DHT22;2362;50.780;0.292;2024-01-25T14:09:51;11.90;96.30
4697;DHT22;2362;50.780;0.292;2024-01-25T14:12:20;11.90;96.30
4697;DHT22;2362;50.780;0.292;2024-01-25T14:14:45;11.80;96.40
4697;DHT22;2362;50.780;0.292;2024-01-25T14:17:11;11.80;96.50
4697;DHT22;2362;50.780;0.292;2024-01-25T14:19:37;11.70;96.60
4697;DHT22;2362;50.780;0.292;2024-01-25T14:22:02;11.70;96.70
4697;DHT22;2362;50.780;0.292;2024-01-25T14:24:28;11.60;96.60
4697;DHT22;2362;50.780;0.292;2024-01-25T14:26:54;11.70;96.70
4697;DHT22;2362;50.780;0.292;2024-01-25T14:29:19;11.70;96.70
4697;DHT22;2362;50.780;0.292;2024-01-25T14:31:45;11.70;96.60
4697;DHT22;2362;50.780;0.292;2024-01-25T14:34:11;11.60;96.70
4697;DHT22;2362;50.780;0.292;2024-01-25T14:36:36;11.60;96.80
4697;DHT22;2362;50.780;0.292;2024-01-25T14:39:02;11.50;96.90
4697;DHT22;2362;50.780;0.292;2024-01-25T14:41:29;11.50;97.00
4697;DHT22;2362;50.780;0.292;2024-01-25T14:43:55;11.50;97.10
4697;DHT22;2362;50.780;0.292;2024-01-25T14:46:21;11.50;97.10
4697;DHT22;2362;50.780;0.292;2024-01-25T14:48:46;11.60;97.00
4697;DHT22;2362;50.780;0.292;2024-01-25T14:51:12;11.60;96.90
4697;DHT22;2362;50.780;0.292;2024-01-25T14:53:38;11.60;96.80
4697;DHT22;2362;50.780;0.292;2024-01-25T14:56:03;11.60;96.70
4697;DHT22;2362;50.780;0.292;2024-01-25T14:58:29;11.60;96.70
4697;DHT22;2362;50.780;0.292;2024-01-25T15:00:55;11.60;96.70
4697;DHT22;2362;50.780;0.292;2024-01-25T15:03:20;11.60;96.60
4697;DHT22;2362;50.780;0.292;2024-01-25T15:05:46;11.60;96.70
4697;DHT22;2362;50.780;0.292;2024-01-25T15:08:12;11.70;96.50
4697;DHT22;2362;50.780;0.292;2024-01-25T15:10:38;11.80;96.40
4697;DHT22;2362;50.780;0.292;2024-01-25T15:13:03;11.70;96.40
4697;DHT22;2362;50.780;0.292;2024-01-25T15:15:29;11.70;96.30
4697;DHT22;2362;50.780;0.292;2024-01-25T15:17:56;11.70;96.50
4697;DHT22;2362;50.780;0.292;2024-01-25T15:20:22;11.70;96.40
4697;DHT22;2362;50.780;0.292;2024-01-25T15:22:49;11.80;96.40
4697;DHT22;2362;50.780;0.292;2024-01-25T15:25:14;11.70;96.40
4697;DHT22;2362;50.780;0.292;2024-01-25T15:27:40;11.70;96.50
4697;DHT22;2362;50.780;0.292;2024-01-25T15:30:06;11.70;96.40
4697;DHT22;2362;50.780;0.292;2024-01-25T15:32:34;11.80;96.30
4697;DHT22;2362;50.780;0.292;2024-01-25T15:35:00;11.80;96.20
4697;DHT22;2362;50.780;0.292;2024-01-25T15:37:25;11.70;96.20
4697;DHT22;2362;50.780;0.292;2024-01-25T15:39:51;11.80;96.30
4697;DHT22;2362;50.780;0.292;2024-01-25T15:42:17;11.70;96.20
4697;DHT22;2362;50.780;0.292;2024-01-25T15:44:42;11.70;96.20
4697;DHT22;2362;50.780;0.292;2024-01-25T15:47:08;11.70;96.20
4697;DHT22;2362;50.780;0.292;2024-01-25T15:49:34;11.60;96.30
4697;DHT22;2362;50.780;0.292;2024-01-25T15:51:59;11.50;96.40
4697;DHT22;2362;50.780;0.292;2024-01-25T15:54:26;11.50;96.40
4697;DHT22;2362;50.780;0.292;2024-01-25T15:56:51;11.50;96.40
4697;DHT22;2362;50.780;0.292;2024-01-25T15:59:17;11.60;96.30
4697;DHT22;2362;50.780;0.292;2024-01-25T16:01:43;11.60;96.30